Nearby METAR Reports

 

KIWA - Chandler/Mesa, Arizona, USA
Distance from station: SSW 7mi, 12km
Updated: Sun, 22-Apr-2018 10:50pm MST
Partly cloudy
Partly cloudy
 Wind from calm
Wind: Calm
Temperature: 73°F , 23°C
Dew Point: 30°F , -1°C
Humidity: 20%
Barometer: 29.88 inHg , 1011.9 hPa
Clouds: Partly cloudy
Visibility: 20 miles , 32 km
Cloud details: Few Clouds 15000 ft
Partly cloudy 25000 ft
2018/04/23 05:50 KIWA 230550Z 00000KT 20SM FEW150 SCT250 23/M01 A2988
KFFZ - Mesa/Falcon Fld, Arizona, USA
Distance from station: NW 8mi, 13km
Updated: Sun, 22-Apr-2018 7:47pm MST
NOT Current
Few Clouds
Few Clouds
 Wind from W
Wind: W 7 mph , 11 km/h
Temperature: 84°F , 29°C
Dew Point: 30°F , -1°C
Humidity: 14%
Barometer: 29.83 inHg , 1010.2 hPa
Clouds: Few Clouds
Visibility: 30 miles , 48 km
Cloud details: Few Clouds 15000 ft
2018/04/23 02:47 KFFZ 230247Z 26006KT 30SM FEW150 29/M01 A2983
 
KSDL - Scottsdale, Arizona, USA
Distance from station: NW 24mi, 38km
Updated: Sun, 22-Apr-2018 10:53pm MST
Clear
Clear
 Wind from calm
Wind: Calm
Temperature: 73°F , 23°C
Dew Point: 30°F , -1°C
Humidity: 20%
Barometer: 29.87 inHg , 1011.5 hPa
Clouds: Clear
Visibility: 10 miles , 16 km
2018/04/23 05:53 KSDL 230553Z AUTO 00000KT 10SM CLR 23/M01 A2987 RMK AO2 SLP091 T02331006 10328 20233 51008
KPHX - Phoenix/Sky Hrbr, Arizona, USA
Distance from station: W 24mi, 39km
Updated: Sun, 22-Apr-2018 10:51pm MST
Clear
Clear
 Wind from W
Wind: W 3 mph , 6 km/h
Temperature: 79°F , 26°C
Dew Point: 28°F , -2°C
Humidity: 16%
Barometer: 29.83 inHg , 1010.2 hPa
Clouds: Clear
Visibility: 10 miles , 16 km
2018/04/23 05:51 KPHX 230551Z 26003KT 10SM CLR 26/M02 A2983 RMK AO2 SLP085 T02611022 10339 20256 51012
 
KCGZ - Casa Granda, Arizona, USA
Distance from station: SSW 33mi, 52km
Updated: Sun, 22-Apr-2018 10:56pm MST
Clear
Clear
 Wind from W
Wind: W 5 mph , 7 km/h
Temperature: 75°F , 24°C
Dew Point: 21°F , -6°C
Humidity: 13%
Barometer: 29.88 inHg , 1011.9 hPa
Clouds: Clear
Visibility: 10 miles , 16 km
2018/04/23 05:56 KCGZ 230556Z AUTO 26004KT 10SM CLR 24/M06 A2988 RMK AO2 SLP104 6//// T02441056 10328 20233 51014 $
KDVT - Phoenix/Deer Vly, Arizona, USA
Distance from station: NW 33mi, 54km
Updated: Sun, 22-Apr-2018 10:53pm MST
Clear
Clear
 Wind from calm
Wind: Calm
Temperature: 72°F , 22°C
Dew Point: 21°F , -6°C
Humidity: 15%
Barometer: 29.86 inHg , 1011.2 hPa
Clouds: Clear
Visibility: 10 miles , 16 km
2018/04/23 05:53 KDVT 230553Z AUTO 00000KT 10SM CLR 22/M06 A2986 RMK AO2 SLP089 T02221061 10322 20222 51009
 
KP08 - Coolidge Muni, Arizona, USA
Distance from station: SSE 34mi, 54km
Updated: Mon, 05-Mar-2018 2:05pm MST
NOT Current
Clear
Clear
 Wind from varies
Wind: varies 6 mph , 9 km/h, Gust: 14 mph , 22 km/h
Temperature: 68°F , 20°C
Dew Point: 7°F , -14°C
Humidity: 9%
Barometer: 30.07 inHg , 1018.3 hPa
Clouds: Clear
Visibility: 10 miles , 16 km
2018/03/05 21:05 KP08 052105Z AUTO VRB05G12KT 10SM CLR 20/M14 A3007 RMK AO2
KGEU - Glendale, Arizona, USA
Distance from station: WNW 41mi, 67km
Updated: Sun, 22-Apr-2018 6:47pm MST
NOT Current
Mostly cloudy
Mostly cloudy
 Wind from S
Wind: S 6 mph , 9 km/h
Temperature: 91°F , 33°C
Dew Point: 19°F , -7°C
Humidity: 7%
Barometer: 29.80 inHg , 1009.1 hPa
Clouds: Mostly cloudy
Visibility: 10 miles , 16 km
Cloud details: Mostly cloudy 15000 ft
2018/04/23 01:47 KGEU 230147Z 19005KT 10SM BKN150 33/M07 A2980 RMK LAST
 
KGYR - Goodyear Municip, Arizona, USA
Distance from station: W 44mi, 71km
Updated: Sun, 22-Apr-2018 8:47pm MST
NOT Current
Partly cloudy
Partly cloudy
 Wind from calm
Wind: Calm
Temperature: 79°F , 26°C
Dew Point: 30°F , -1°C
Humidity: 17%
Barometer: 29.82 inHg , 1009.8 hPa
Clouds: Partly cloudy
Visibility: 10 miles , 16 km
Cloud details: Partly cloudy 22000 ft
2018/04/23 03:47 KGYR 230347Z 00000KT 10SM SCT220 26/M01 A2982 RMK LAST
KLUF - Luke Afb/Glendal, Arizona, USA
Distance from station: W 45mi, 72km
Updated: Sun, 22-Apr-2018 9:58pm MST
Clear
Clear
 Wind from calm
Wind: Calm
Temperature: 75°F , 24°C
Dew Point: 32°F , 0°C
Humidity: 21%
Barometer: 29.82 inHg , 1009.8 hPa
Clouds: Clear
Visibility: 10 miles , 16 km
2018/04/23 04:58 KLUF 230458Z AUTO 00000KT 10SM CLR 24/00 A2982 RMK AO2 SLP087 T02351001 VISNO RWY21 $
 
KPAN - Payson, Arizona, USA
Distance from station: NNE 61mi, 98km
Updated: Sun, 22-Apr-2018 10:35pm MST
Clear
Clear
 Wind from calm
Wind: Calm
Temperature: 59°F , 15°C
Dew Point: 16°F , -9°C
Humidity: 18%
Barometer: 30.09 inHg , 1019 hPa
Clouds: Clear
Visibility: 10 miles , 16 km
2018/04/23 05:35 KPAN 230535Z AUTO 00000KT 10SM CLR 15/M09 A3009 RMK AO2
KBXK - Buckeye, Arizona, USA
Distance from station: W 62mi, 101km
Updated: Sun, 22-Apr-2018 10:35pm MST
Clear
Clear
 Wind from NNW
Wind: NNW 5 mph , 7 km/h
Temperature: 73°F , 23°C
Dew Point: 19°F , -7°C
Humidity: 13%
Barometer: 29.85 inHg , 1010.8 hPa
Clouds: Clear
Visibility: 8 miles , 13 km
2018/04/23 05:35 KBXK 230535Z AUTO 33004KT 8SM CLR 23/M07 A2985 RMK AO1
 
KGXF - Gila Bend (aaf), Arizona, USA
Distance from station: WSW 74mi, 120km
Updated: Sun, 22-Apr-2018 9:58pm MST
Clear
Clear
 Wind from WSW
Wind: WSW 8 mph , 13 km/h
Temperature: 79°F , 26°C
Dew Point: 16°F , -9°C
Humidity: 9%
Barometer: 29.83 inHg , 1010.2 hPa
Clouds: Clear
Visibility: 10 miles , 16 km
2018/04/23 04:58 KGXF 230458Z AUTO 24007KT 10SM CLR 26/M09 A2983 RMK AO2 SLP090 T02601094